Impacts METAR Board INFO
IDs:

KDTW - Detroit Metro/Wayne, MI, US

Updated at: 1445 UTC 22 Feb 2018
Potential Impact None Slight Moderate High
Time22/02Z 22/03Z 22/04Z 22/05Z 22/06Z 22/07Z 22/08Z 22/09Z 22/10Z 22/11Z 22/12Z 22/13Z 22/14Z
VIS 10 10 10 10 10 10 9 10 10 10 10
CIG 160 160 160 150 150 150 120 110 100 110 95
CoverOVCOVCOVCOVCOVCOVCOVCOVCOVCOVCOVC
FltCatVFRVFRVFRVFRVFRVFRVFRVFRVFRVFRVFR
WX----------------------
WDir5060404050405050404020
WSpd 5 7 8 8 10 10 14 9 9 12 10
WGst -- -- -- -- -- -- -- -- -- -- --
Raw hourly METARs


KDTW 220353Z 05005KT 10SM SCT020 OVC160 00/M03 A3064 RMK AO2 SLP383 T00001028 $
KDTW 220453Z 06007KT 10SM OVC160 00/M03 A3063 RMK AO2 SLP380 T00001028 401390000 $
KDTW 220553Z 04008KT 10SM FEW025 OVC160 00/M03 A3064 RMK AO2 SLP382 T00001033 10022 20000 51002 $
KDTW 220653Z 04008KT 10SM FEW025 OVC150 M01/M03 A3062 RMK AO2 SLP376 T10061033 $
KDTW 220753Z 05010KT 10SM FEW025 OVC150 M01/M03 A3061 RMK AO2 SLP373 T10061033 $
KDTW 220853Z 04010KT 10SM FEW025 OVC150 M01/M04 A3058 RMK AO2 SLP363 T10061039 58018 $
KDTW 220953Z 05014KT 9SM FEW008 SCT055 OVC120 M01/M04 A3058 RMK AO2 SLP362 T10061044 $
KDTW 221053Z 05009KT 10SM FEW012 SCT055 OVC110 M01/M05 A3058 RMK AO2 SLP363 T10061050 $
KDTW 221153Z 04009KT 10SM FEW012 OVC100 M01/M05 A3058 RMK AO2 SLP362 70012 T10061050 10000 21006 56001 $
KDTW 221253Z 04012KT 10SM OVC110 M01/M05 A3058 RMK AO2 SLP363 T10061050 $
KDTW 221353Z 02010KT 10SM OVC095 00/M06 A3062 RMK AO2 PRESRR SLP377 T00001056 $